sensor_id;sensor_type;location;lat;lon;timestamp;pressure;altitude;pressure_sealevel;temperature;humidity
56737;BME280;42618;51.226;4.910;2022-09-09T00:00:32;49553.56;;;-146.94;100.00
56737;BME280;42618;51.226;4.910;2022-09-09T00:03:24;49597.44;;;-146.94;100.00
56737;BME280;42618;51.226;4.910;2022-09-09T00:05:58;49593.44;;;-146.94;100.00
56737;BME280;42618;51.226;4.910;2022-09-09T00:09:18;49567.53;;;-146.94;100.00
56737;BME280;42618;51.226;4.910;2022-09-09T00:11:29;49581.47;;;-146.94;100.00
56737;BME280;42618;51.226;4.910;2022-09-09T00:14:00;49589.44;;;-146.94;100.00
56737;BME280;42618;51.226;4.910;2022-09-09T00:16:34;49621.34;;;-146.94;100.00
56737;BME280;42618;51.226;4.910;2022-09-09T00:21:39;49571.50;;;-146.94;100.00
56737;BME280;42618;51.226;4.910;2022-09-09T00:24:34;49593.44;;;-146.94;100.00
56737;BME280;42618;51.226;4.910;2022-09-09T00:27:10;49613.38;;;-146.94;100.00
56737;BME280;42618;51.226;4.910;2022-09-09T00:29:43;49603.41;;;-146.94;100.00
56737;BME280;42618;51.226;4.910;2022-09-09T00:32:18;49599.41;;;-146.94;100.00
56737;BME280;42618;51.226;4.910;2022-09-09T00:34:58;49643.28;;;-146.94;100.00
56737;BME280;42618;51.226;4.910;2022-09-09T00:37:26;49609.38;;;-146.94;100.00
56737;BME280;42618;51.226;4.910;2022-09-09T00:39:59;49597.44;;;-146.94;100.00
56737;BME280;42618;51.226;4.910;2022-09-09T00:42:41;49555.56;;;-146.94;100.00
56737;BME280;42618;51.226;4.910;2022-09-09T00:47:50;49567.53;;;-146.94;100.00
56737;BME280;42618;51.226;4.910;2022-09-09T00:53:28;49587.47;;;-146.94;100.00
56737;BME280;42618;51.226;4.910;2022-09-09T00:56:14;49633.31;;;-146.94;100.00
56737;BME280;42618;51.226;4.910;2022-09-09T00:59:11;49595.44;;;-146.94;100.00
56737;BME280;42618;51.226;4.910;2022-09-09T01:01:32;49585.47;;;-146.94;100.00
56737;BME280;42618;51.226;4.910;2022-09-09T01:03:59;49579.47;;;-146.94;100.00
56737;BME280;42618;51.226;4.910;2022-09-09T01:06:32;49617.38;;;-146.94;100.00
56737;BME280;42618;51.226;4.910;2022-09-09T01:11:46;49623.34;;;-146.94;100.00
56737;BME280;42618;51.226;4.910;2022-09-09T01:14:27;49615.38;;;-146.94;100.00
56737;BME280;42618;51.226;4.910;2022-09-09T01:17:01;49583.47;;;-146.94;100.00
56737;BME280;42618;51.226;4.910;2022-09-09T01:28:15;49579.47;;;-146.94;100.00
56737;BME280;42618;51.226;4.910;2022-09-09T01:30:44;49619.34;;;-146.94;100.00
56737;BME280;42618;51.226;4.910;2022-09-09T01:33:16;49595.44;;;-146.94;100.00
56737;BME280;42618;51.226;4.910;2022-09-09T01:38:15;49595.44;;;-146.94;100.00
56737;BME280;42618;51.226;4.910;2022-09-09T01:40:43;49611.38;;;-146.94;100.00
56737;BME280;42618;51.226;4.910;2022-09-09T01:43:10;49635.31;;;-146.94;100.00
56737;BME280;42618;51.226;4.910;2022-09-09T01:45:39;49623.34;;;-146.94;100.00
56737;BME280;42618;51.226;4.910;2022-09-09T01:48:08;49613.38;;;-146.94;100.00
56737;BME280;42618;51.226;4.910;2022-09-09T01:50:43;49629.31;;;-146.94;100.00
56737;BME280;42618;51.226;4.910;2022-09-09T01:53:11;49635.31;;;-146.94;100.00
56737;BME280;42618;51.226;4.910;2022-09-09T01:55:40;49597.44;;;-146.94;100.00
56737;BME280;42618;51.226;4.910;2022-09-09T02:04:20;49619.34;;;-146.94;100.00
56737;BME280;42618;51.226;4.910;2022-09-09T02:06:55;49599.41;;;-146.94;100.00
56737;BME280;42618;51.226;4.910;2022-09-09T02:09:29;49605.41;;;-146.94;100.00
56737;BME280;42618;51.226;4.910;2022-09-09T02:12:08;49611.38;;;-146.94;100.00
56737;BME280;42618;51.226;4.910;2022-09-09T02:14:50;49585.47;;;-146.94;100.00
56737;BME280;42618;51.226;4.910;2022-09-09T02:17:26;49611.38;;;-146.94;100.00
56737;BME280;42618;51.226;4.910;2022-09-09T02:20:11;49605.41;;;-146.94;100.00
56737;BME280;42618;51.226;4.910;2022-09-09T02:22:45;49645.28;;;-146.94;100.00
56737;BME280;42618;51.226;4.910;2022-09-09T02:25:17;49583.47;;;-146.94;100.00
56737;BME280;42618;51.226;4.910;2022-09-09T02:27:48;49611.38;;;-146.94;100.00
56737;BME280;42618;51.226;4.910;2022-09-09T02:30:16;49659.22;;;-146.94;100.00
56737;BME280;42618;51.226;4.910;2022-09-09T02:32:52;49607.41;;;-146.94;100.00
56737;BME280;42618;51.226;4.910;2022-09-09T02:35:34;49617.38;;;-146.94;100.00
56737;BME280;42618;51.226;4.910;2022-09-09T02:38:08;49563.53;;;-146.94;100.00
56737;BME280;42618;51.226;4.910;2022-09-09T02:40:36;49593.44;;;-146.94;100.00
56737;BME280;42618;51.226;4.910;2022-09-09T02:43:03;49599.41;;;-146.94;100.00
56737;BME280;42618;51.226;4.910;2022-09-09T02:45:51;49631.31;;;-146.94;100.00
56737;BME280;42618;51.226;4.910;2022-09-09T02:48:29;49641.28;;;-146.94;100.00
56737;BME280;42618;51.226;4.910;2022-09-09T02:51:08;49637.28;;;-146.94;100.00
56737;BME280;42618;51.226;4.910;2022-09-09T02:53:58;49617.38;;;-146.94;100.00
56737;BME280;42618;51.226;4.910;2022-09-09T02:56:30;49611.38;;;-146.94;100.00
56737;BME280;42618;51.226;4.910;2022-09-09T02:59:03;49625.34;;;-146.94;100.00
56737;BME280;42618;51.226;4.910;2022-09-09T03:01:33;49631.31;;;-146.94;100.00
56737;BME280;42618;51.226;4.910;2022-09-09T03:04:00;49603.41;;;-146.94;100.00
56737;BME280;42618;51.226;4.910;2022-09-09T03:06:26;49623.34;;;-146.94;100.00
56737;BME280;42618;51.226;4.910;2022-09-09T03:09:02;49627.31;;;-146.94;100.00
56737;BME280;42618;51.226;4.910;2022-09-09T03:11:29;49619.34;;;-146.94;100.00
56737;BME280;42618;51.226;4.910;2022-09-09T03:13:57;49601.41;;;-146.94;100.00
56737;BME280;42618;51.226;4.910;2022-09-09T03:16:27;49611.38;;;-146.94;100.00
56737;BME280;42618;51.226;4.910;2022-09-09T03:18:54;49647.25;;;-146.94;100.00
56737;BME280;42618;51.226;4.910;2022-09-09T03:21:21;49647.25;;;-146.94;100.00
56737;BME280;42618;51.226;4.910;2022-09-09T03:23:48;49651.25;;;-146.94;100.00
56737;BME280;42618;51.226;4.910;2022-09-09T03:26:15;49607.41;;;-146.94;100.00
56737;BME280;42618;51.226;4.910;2022-09-09T03:28:44;49615.38;;;-146.94;100.00
56737;BME280;42618;51.226;4.910;2022-09-09T03:31:14;49627.31;;;-146.94;100.00
56737;BME280;42618;51.226;4.910;2022-09-09T03:33:41;49629.31;;;-146.94;100.00
56737;BME280;42618;51.226;4.910;2022-09-09T03:36:11;49627.31;;;-146.94;100.00
56737;BME280;42618;51.226;4.910;2022-09-09T03:38:38;49619.34;;;-146.94;100.00
56737;BME280;42618;51.226;4.910;2022-09-09T03:41:06;49601.41;;;-146.94;100.00
56737;BME280;42618;51.226;4.910;2022-09-09T03:43:34;49605.41;;;-146.94;100.00
56737;BME280;42618;51.226;4.910;2022-09-09T03:46:01;49597.44;;;-146.94;100.00
56737;BME280;42618;51.226;4.910;2022-09-09T03:48:29;49631.31;;;-146.94;100.00
56737;BME280;42618;51.226;4.910;2022-09-09T03:50:56;49643.28;;;-146.94;100.00
56737;BME280;42618;51.226;4.910;2022-09-09T03:53:25;49583.47;;;-146.94;100.00
56737;BME280;42618;51.226;4.910;2022-09-09T03:55:53;49627.31;;;-146.94;100.00
56737;BME280;42618;51.226;4.910;2022-09-09T03:58:23;49641.28;;;-146.94;100.00
56737;BME280;42618;51.226;4.910;2022-09-09T04:00:59;49627.31;;;-146.94;100.00
56737;BME280;42618;51.226;4.910;2022-09-09T04:03:27;49651.25;;;-146.94;100.00
56737;BME280;42618;51.226;4.910;2022-09-09T04:05:56;49637.28;;;-146.94;100.00
56737;BME280;42618;51.226;4.910;2022-09-09T04:08:25;49621.34;;;-146.94;100.00
56737;BME280;42618;51.226;4.910;2022-09-09T04:10:53;49639.28;;;-146.94;100.00
56737;BME280;42618;51.226;4.910;2022-09-09T04:13:26;49625.34;;;-146.94;100.00
56737;BME280;42618;51.226;4.910;2022-09-09T04:15:56;49611.38;;;-146.94;100.00
56737;BME280;42618;51.226;4.910;2022-09-09T04:18:24;49603.41;;;-146.94;100.00
56737;BME280;42618;51.226;4.910;2022-09-09T04:20:53;49637.28;;;-146.94;100.00
56737;BME280;42618;51.226;4.910;2022-09-09T04:23:24;49611.38;;;-146.94;100.00
56737;BME280;42618;51.226;4.910;2022-09-09T04:25:53;49609.38;;;-146.94;100.00
56737;BME280;42618;51.226;4.910;2022-09-09T04:28:22;49661.22;;;-146.94;100.00
56737;BME280;42618;51.226;4.910;2022-09-09T04:30:49;49631.31;;;-146.94;100.00
56737;BME280;42618;51.226;4.910;2022-09-09T04:33:16;49639.28;;;-146.94;100.00
56737;BME280;42618;51.226;4.910;2022-09-09T04:35:50;49611.38;;;-146.94;100.00
56737;BME280;42618;51.226;4.910;2022-09-09T04:38:22;49617.38;;;-146.94;100.00
56737;BME280;42618;51.226;4.910;2022-09-09T04:40:50;49645.28;;;-146.94;100.00
56737;BME280;42618;51.226;4.910;2022-09-09T04:43:21;49649.25;;;-146.94;100.00
56737;BME280;42618;51.226;4.910;2022-09-09T04:45:50;49651.25;;;-146.94;100.00
56737;BME280;42618;51.226;4.910;2022-09-09T04:48:20;49633.31;;;-146.94;100.00
56737;BME280;42618;51.226;4.910;2022-09-09T04:50:59;49639.28;;;-146.94;100.00
56737;BME280;42618;51.226;4.910;2022-09-09T04:53:26;49607.41;;;-146.94;100.00
56737;BME280;42618;51.226;4.910;2022-09-09T04:56:01;49611.38;;;-146.94;100.00
56737;BME280;42618;51.226;4.910;2022-09-09T04:58:29;49597.44;;;-146.94;100.00
56737;BME280;42618;51.226;4.910;2022-09-09T05:01:09;49625.34;;;-146.94;100.00
56737;BME280;42618;51.226;4.910;2022-09-09T05:03:38;49671.19;;;-146.94;100.00
56737;BME280;42618;51.226;4.910;2022-09-09T05:06:09;49633.31;;;-146.94;100.00
56737;BME280;42618;51.226;4.910;2022-09-09T05:08:38;49627.31;;;-146.94;100.00
56737;BME280;42618;51.226;4.910;2022-09-09T05:13:52;49617.38;;;-146.94;100.00
56737;BME280;42618;51.226;4.910;2022-09-09T05:16:20;49609.38;;;-146.94;100.00
56737;BME280;42618;51.226;4.910;2022-09-09T05:18:47;49627.31;;;-146.94;100.00
56737;BME280;42618;51.226;4.910;2022-09-09T05:21:17;49627.31;;;-146.94;100.00
56737;BME280;42618;51.226;4.910;2022-09-09T05:23:45;49639.28;;;-146.94;100.00
56737;BME280;42618;51.226;4.910;2022-09-09T05:26:16;49627.31;;;-146.94;100.00
56737;BME280;42618;51.226;4.910;2022-09-09T05:28:46;49619.34;;;-146.94;100.00
56737;BME280;42618;51.226;4.910;2022-09-09T05:31:14;49643.28;;;-146.94;100.00
56737;BME280;42618;51.226;4.910;2022-09-09T05:33:45;49637.28;;;-146.94;100.00
56737;BME280;42618;51.226;4.910;2022-09-09T05:36:18;49641.28;;;-146.94;100.00
56737;BME280;42618;51.226;4.910;2022-09-09T05:38:47;49619.34;;;-146.94;100.00
56737;BME280;42618;51.226;4.910;2022-09-09T05:41:14;49603.41;;;-146.94;100.00
56737;BME280;42618;51.226;4.910;2022-09-09T05:43:46;49619.34;;;-146.94;100.00
56737;BME280;42618;51.226;4.910;2022-09-09T05:46:20;49621.34;;;-146.94;100.00
56737;BME280;42618;51.226;4.910;2022-09-09T05:48:51;49619.34;;;-146.94;100.00
56737;BME280;42618;51.226;4.910;2022-09-09T05:51:24;49629.31;;;-146.94;100.00
56737;BME280;42618;51.226;4.910;2022-09-09T05:53:52;49647.25;;;-146.94;100.00
56737;BME280;42618;51.226;4.910;2022-09-09T05:56:24;49609.38;;;-146.94;100.00
56737;BME280;42618;51.226;4.910;2022-09-09T05:58:52;49623.34;;;-146.94;100.00
56737;BME280;42618;51.226;4.910;2022-09-09T06:01:23;49623.34;;;-146.94;100.00
56737;BME280;42618;51.226;4.910;2022-09-09T06:03:51;49607.41;;;-146.94;100.00
56737;BME280;42618;51.226;4.910;2022-09-09T06:06:24;49611.38;;;-146.94;100.00
56737;BME280;42618;51.226;4.910;2022-09-09T06:08:55;49623.34;;;-146.94;100.00
56737;BME280;42618;51.226;4.910;2022-09-09T06:11:30;49669.19;;;-146.94;100.00
56737;BME280;42618;51.226;4.910;2022-09-09T06:14:00;49635.31;;;-146.94;100.00
56737;BME280;42618;51.226;4.910;2022-09-09T06:16:29;49585.47;;;-146.94;100.00
56737;BME280;42618;51.226;4.910;2022-09-09T06:18:58;49603.41;;;-146.94;100.00
56737;BME280;42618;51.226;4.910;2022-09-09T06:21:29;49617.38;;;-146.94;100.00
56737;BME280;42618;51.226;4.910;2022-09-09T06:23:59;49595.44;;;-146.94;100.00
56737;BME280;42618;51.226;4.910;2022-09-09T06:26:35;49625.34;;;-146.94;100.00
56737;BME280;42618;51.226;4.910;2022-09-09T06:29:03;49607.41;;;-146.94;100.00
56737;BME280;42618;51.226;4.910;2022-09-09T06:31:32;49615.38;;;-146.94;100.00
56737;BME280;42618;51.226;4.910;2022-09-09T06:34:07;49633.31;;;-146.94;100.00
56737;BME280;42618;51.226;4.910;2022-09-09T06:36:39;49629.31;;;-146.94;100.00
56737;BME280;42618;51.226;4.910;2022-09-09T06:39:09;49579.47;;;-146.94;100.00
56737;BME280;42618;51.226;4.910;2022-09-09T06:41:41;49619.34;;;-146.94;100.00
56737;BME280;42618;51.226;4.910;2022-09-09T06:44:29;49615.38;;;-146.94;100.00
56737;BME280;42618;51.226;4.910;2022-09-09T06:47:02;49617.38;;;-146.94;100.00
56737;BME280;42618;51.226;4.910;2022-09-09T06:49:29;49603.41;;;-146.94;100.00
56737;BME280;42618;51.226;4.910;2022-09-09T06:51:56;49601.41;;;-146.94;100.00
56737;BME280;42618;51.226;4.910;2022-09-09T06:54:24;49579.47;;;-146.94;100.00
56737;BME280;42618;51.226;4.910;2022-09-09T06:56:52;49575.50;;;-146.94;100.00
56737;BME280;42618;51.226;4.910;2022-09-09T06:59:22;49595.44;;;-146.94;100.00
56737;BME280;42618;51.226;4.910;2022-09-09T07:01:51;49635.31;;;-146.94;100.00
56737;BME280;42618;51.226;4.910;2022-09-09T07:04:22;49589.44;;;-146.94;99.17
56737;BME280;42618;51.226;4.910;2022-09-09T07:06:49;49599.41;;;-146.94;99.33
56737;BME280;42618;51.226;4.910;2022-09-09T07:09:20;49583.47;;;-146.94;99.05
56737;BME280;42618;51.226;4.910;2022-09-09T07:11:50;49571.50;;;-146.94;98.77
56737;BME280;42618;51.226;4.910;2022-09-09T07:14:22;49591.44;;;-146.94;97.75
56737;BME280;42618;51.226;4.910;2022-09-09T07:16:59;49551.56;;;-146.94;98.10
56737;BME280;42618;51.226;4.910;2022-09-09T07:19:31;49595.44;;;-146.94;97.94
56737;BME280;42618;51.226;4.910;2022-09-09T07:22:00;49635.31;;;-146.94;97.13
56737;BME280;42618;51.226;4.910;2022-09-09T07:24:29;49631.31;;;-146.94;96.80
56737;BME280;42618;51.226;4.910;2022-09-09T07:26:57;49641.28;;;-146.94;96.46
56737;BME280;42618;51.226;4.910;2022-09-09T07:29:23;49591.44;;;-146.94;96.04
56737;BME280;42618;51.226;4.910;2022-09-09T07:31:50;49583.47;;;-146.94;95.62
56737;BME280;42618;51.226;4.910;2022-09-09T07:34:22;49627.31;;;-146.94;95.33
56737;BME280;42618;51.226;4.910;2022-09-09T07:36:50;49601.41;;;-146.94;94.66
56737;BME280;42618;51.226;4.910;2022-09-09T07:39:18;49605.41;;;-146.94;94.96
56737;BME280;42618;51.226;4.910;2022-09-09T07:41:48;49597.44;;;-146.94;94.37
56737;BME280;42618;51.226;4.910;2022-09-09T07:44:21;49585.47;;;-146.94;94.39
56737;BME280;42618;51.226;4.910;2022-09-09T07:47:08;49589.44;;;-146.94;94.28
56737;BME280;42618;51.226;4.910;2022-09-09T07:49:41;49611.38;;;-146.94;93.88
56737;BME280;42618;51.226;4.910;2022-09-09T07:52:08;49609.38;;;-146.94;94.06
56737;BME280;42618;51.226;4.910;2022-09-09T07:54:38;49569.50;;;-146.94;94.38
56737;BME280;42618;51.226;4.910;2022-09-09T07:57:05;49613.38;;;-146.94;93.86
56737;BME280;42618;51.226;4.910;2022-09-09T07:59:34;49603.41;;;-146.94;93.27
56737;BME280;42618;51.226;4.910;2022-09-09T08:02:02;49601.41;;;-146.94;94.20
56737;BME280;42618;51.226;4.910;2022-09-09T08:04:31;49615.38;;;-146.94;93.92
56737;BME280;42618;51.226;4.910;2022-09-09T08:07:00;49579.47;;;-146.94;94.41
56737;BME280;42618;51.226;4.910;2022-09-09T08:09:30;49629.31;;;-146.94;93.39
56737;BME280;42618;51.226;4.910;2022-09-09T08:12:05;49575.50;;;-146.94;93.03
56737;BME280;42618;51.226;4.910;2022-09-09T08:14:33;49635.31;;;-146.94;91.95
56737;BME280;42618;51.226;4.910;2022-09-09T08:17:00;49581.47;;;-146.94;91.84
56737;BME280;42618;51.226;4.910;2022-09-09T08:19:28;49551.56;;;-146.94;92.44
56737;BME280;42618;51.226;4.910;2022-09-09T08:21:58;49571.50;;;-146.94;91.32
56737;BME280;42618;51.226;4.910;2022-09-09T08:24:26;49561.53;;;-146.94;91.17
56737;BME280;42618;51.226;4.910;2022-09-09T08:26:53;49593.44;;;-146.94;92.04
56737;BME280;42618;51.226;4.910;2022-09-09T08:29:22;49589.44;;;-146.94;91.48
56737;BME280;42618;51.226;4.910;2022-09-09T08:31:53;49609.38;;;-146.94;91.90
56737;BME280;42618;51.226;4.910;2022-09-09T08:34:21;49597.44;;;-146.94;90.65
56737;BME280;42618;51.226;4.910;2022-09-09T08:36:50;49595.44;;;-146.94;91.19
56737;BME280;42618;51.226;4.910;2022-09-09T08:39:21;49577.50;;;-146.94;92.49
56737;BME280;42618;51.226;4.910;2022-09-09T08:48:39;49591.44;;;-146.94;91.81
56737;BME280;42618;51.226;4.910;2022-09-09T08:50:40;49607.41;;;-146.94;90.67
56737;BME280;42618;51.226;4.910;2022-09-09T08:53:22;49591.44;;;-146.94;90.95
56737;BME280;42618;51.226;4.910;2022-09-09T08:55:58;49585.47;;;-146.94;90.81
56737;BME280;42618;51.226;4.910;2022-09-09T08:58:48;49583.47;;;-146.94;90.40
56737;BME280;42618;51.226;4.910;2022-09-09T09:11:59;49619.34;;;-146.94;91.98
56737;BME280;42618;51.226;4.910;2022-09-09T09:14:35;49631.31;;;-146.94;93.05
56737;BME280;42618;51.226;4.910;2022-09-09T09:17:09;49621.34;;;-146.94;93.42
56737;BME280;42618;51.226;4.910;2022-09-09T09:19:40;49591.44;;;-146.94;93.43
56737;BME280;42618;51.226;4.910;2022-09-09T09:22:21;49615.38;;;-146.94;94.20
56737;BME280;42618;51.226;4.910;2022-09-09T09:30:00;49575.50;;;-146.94;99.32
56737;BME280;42618;51.226;4.910;2022-09-09T09:33:01;49599.41;;;-146.94;100.00
56737;BME280;42618;51.226;4.910;2022-09-09T09:35:29;49567.53;;;-146.94;99.34
56737;BME280;42618;51.226;4.910;2022-09-09T09:37:56;49603.41;;;-146.94;100.00
56737;BME280;42618;51.226;4.910;2022-09-09T09:40:57;49595.44;;;-146.94;99.29
56737;BME280;42618;51.226;4.910;2022-09-09T09:43:34;49579.47;;;-146.94;99.56
56737;BME280;42618;51.226;4.910;2022-09-09T09:46:19;49563.53;;;-146.94;100.00
56737;BME280;42618;51.226;4.910;2022-09-09T09:49:05;49617.38;;;-146.94;98.82
56737;BME280;42618;51.226;4.910;2022-09-09T09:51:37;49615.38;;;-146.94;99.51
56737;BME280;42618;51.226;4.910;2022-09-09T09:54:09;49621.34;;;-146.94;99.15
56737;BME280;42618;51.226;4.910;2022-09-09T09:56:40;49611.38;;;-146.94;100.00
56737;BME280;42618;51.226;4.910;2022-09-09T10:05:24;49581.47;;;-146.94;100.00
56737;BME280;42618;51.226;4.910;2022-09-09T10:08:12;49591.44;;;-146.94;100.00
56737;BME280;42618;51.226;4.910;2022-09-09T10:22:26;49603.41;;;-146.94;100.00
56737;BME280;42618;51.226;4.910;2022-09-09T10:33:14;49585.47;;;-146.94;100.00
56737;BME280;42618;51.226;4.910;2022-09-09T10:36:30;49627.31;;;-146.94;100.00
56737;BME280;42618;51.226;4.910;2022-09-09T10:38:41;49607.41;;;-146.94;100.00
56737;BME280;42618;51.226;4.910;2022-09-09T10:41:18;49613.38;;;-146.94;100.00
56737;BME280;42618;51.226;4.910;2022-09-09T10:49:49;49585.47;;;-146.94;100.00
56737;BME280;42618;51.226;4.910;2022-09-09T10:55:24;49605.41;;;-146.94;98.84
56737;BME280;42618;51.226;4.910;2022-09-09T10:57:57;49597.44;;;-146.94;98.82
56737;BME280;42618;51.226;4.910;2022-09-09T11:00:39;49615.38;;;-146.94;99.35
56737;BME280;42618;51.226;4.910;2022-09-09T11:03:22;49595.44;;;-146.94;99.82
56737;BME280;42618;51.226;4.910;2022-09-09T11:06:01;49621.34;;;-146.94;99.13
56737;BME280;42618;51.226;4.910;2022-09-09T11:08:33;49589.44;;;-146.94;99.99
56737;BME280;42618;51.226;4.910;2022-09-09T11:11:19;49603.41;;;-146.94;99.61
56737;BME280;42618;51.226;4.910;2022-09-09T11:13:53;49621.34;;;-146.94;99.71
56737;BME280;42618;51.226;4.910;2022-09-09T11:16:42;49605.41;;;-146.94;97.93
56737;BME280;42618;51.226;4.910;2022-09-09T11:21:55;49595.44;;;-146.94;98.60
56737;BME280;42618;51.226;4.910;2022-09-09T11:24:32;49611.38;;;-146.94;98.25
56737;BME280;42618;51.226;4.910;2022-09-09T11:27:53;49597.44;;;-146.94;96.97
56737;BME280;42618;51.226;4.910;2022-09-09T11:38:21;49579.47;;;-146.94;95.60
56737;BME280;42618;51.226;4.910;2022-09-09T11:41:00;49591.44;;;-146.94;93.56
56737;BME280;42618;51.226;4.910;2022-09-09T11:43:30;49541.59;;;-146.94;94.63
56737;BME280;42618;51.226;4.910;2022-09-09T11:46:00;49571.50;;;-146.94;93.70
56737;BME280;42618;51.226;4.910;2022-09-09T11:48:34;49579.47;;;-146.94;93.38
56737;BME280;42618;51.226;4.910;2022-09-09T11:51:07;49599.41;;;-146.94;93.42
56737;BME280;42618;51.226;4.910;2022-09-09T11:53:56;49607.41;;;-146.94;92.63
56737;BME280;42618;51.226;4.910;2022-09-09T11:56:33;49579.47;;;-146.94;91.90
56737;BME280;42618;51.226;4.910;2022-09-09T12:17:25;49561.53;;;-146.94;83.77
56737;BME280;42618;51.226;4.910;2022-09-09T12:28:17;49569.50;;;-146.94;80.06
56737;BME280;42618;51.226;4.910;2022-09-09T12:33:18;49563.53;;;-146.94;79.30
56737;BME280;42618;51.226;4.910;2022-09-09T12:35:52;49567.53;;;-146.94;78.75
56737;BME280;42618;51.226;4.910;2022-09-09T12:38:29;49559.56;;;-146.94;79.50
56737;BME280;42618;51.226;4.910;2022-09-09T12:40:58;49529.66;;;-146.94;80.83
56737;BME280;42618;51.226;4.910;2022-09-09T12:43:26;49559.56;;;-146.94;82.92
56737;BME280;42618;51.226;4.910;2022-09-09T12:46:07;49551.56;;;-146.94;85.44
56737;BME280;42618;51.226;4.910;2022-09-09T12:48:41;49545.59;;;-146.94;83.90
56737;BME280;42618;51.226;4.910;2022-09-09T12:51:37;49599.41;;;-146.94;85.86
56737;BME280;42618;51.226;4.910;2022-09-09T12:54:04;49567.53;;;-146.94;84.12
56737;BME280;42618;51.226;4.910;2022-09-09T12:56:32;49571.50;;;-146.94;84.55
56737;BME280;42618;51.226;4.910;2022-09-09T12:58:59;49551.56;;;-146.94;81.55
56737;BME280;42618;51.226;4.910;2022-09-09T13:01:30;49563.53;;;-146.94;79.28
56737;BME280;42618;51.226;4.910;2022-09-09T13:03:59;49547.59;;;-146.94;78.53
56737;BME280;42618;51.226;4.910;2022-09-09T13:06:28;49523.66;;;-146.94;75.52
56737;BME280;42618;51.226;4.910;2022-09-09T13:08:57;49555.56;;;-146.94;74.25
56737;BME280;42618;51.226;4.910;2022-09-09T13:11:30;49499.75;;;-146.94;76.34
56737;BME280;42618;51.226;4.910;2022-09-09T13:13:58;49547.59;;;-146.94;76.08
56737;BME280;42618;51.226;4.910;2022-09-09T13:16:28;49575.50;;;-146.94;76.75
56737;BME280;42618;51.226;4.910;2022-09-09T13:19:10;49537.63;;;-146.94;75.51
56737;BME280;42618;51.226;4.910;2022-09-09T13:21:40;49571.50;;;-146.94;75.90
56737;BME280;42618;51.226;4.910;2022-09-09T13:24:26;49577.50;;;-146.94;76.85
56737;BME280;42618;51.226;4.910;2022-09-09T13:26:57;49527.66;;;-146.94;76.79
56737;BME280;42618;51.226;4.910;2022-09-09T13:29:24;49563.53;;;-146.94;76.29
56737;BME280;42618;51.226;4.910;2022-09-09T13:31:51;49559.56;;;-146.94;76.00
56737;BME280;42618;51.226;4.910;2022-09-09T13:34:37;49527.66;;;-146.94;75.47
56737;BME280;42618;51.226;4.910;2022-09-09T13:37:06;49543.59;;;-146.94;75.32
56737;BME280;42618;51.226;4.910;2022-09-09T13:39:34;49539.63;;;-146.94;75.57
56737;BME280;42618;51.226;4.910;2022-09-09T13:42:03;49539.63;;;-146.94;75.19
56737;BME280;42618;51.226;4.910;2022-09-09T13:44:34;49535.63;;;-146.94;74.71
56737;BME280;42618;51.226;4.910;2022-09-09T13:47:04;49483.81;;;-146.94;73.72
56737;BME280;42618;51.226;4.910;2022-09-09T13:49:36;49547.59;;;-146.94;73.53
56737;BME280;42618;51.226;4.910;2022-09-09T13:52:05;49499.75;;;-146.94;74.17
56737;BME280;42618;51.226;4.910;2022-09-09T13:54:35;49577.50;;;-146.94;73.49
56737;BME280;42618;51.226;4.910;2022-09-09T13:57:03;49555.56;;;-146.94;71.78
56737;BME280;42618;51.226;4.910;2022-09-09T13:59:31;49531.63;;;-146.94;71.96
56737;BME280;42618;51.226;4.910;2022-09-09T14:02:18;49521.69;;;-146.94;70.40
56737;BME280;42618;51.226;4.910;2022-09-09T14:04:45;49535.63;;;-146.94;70.86
56737;BME280;42618;51.226;4.910;2022-09-09T14:07:14;49513.69;;;-146.94;68.58
56737;BME280;42618;51.226;4.910;2022-09-09T14:09:41;49547.59;;;-146.94;70.09
56737;BME280;42618;51.226;4.910;2022-09-09T14:12:10;49555.56;;;-146.94;70.89
56737;BME280;42618;51.226;4.910;2022-09-09T14:14:38;49521.69;;;-146.94;72.63
56737;BME280;42618;51.226;4.910;2022-09-09T14:17:05;49531.63;;;-146.94;72.57
56737;BME280;42618;51.226;4.910;2022-09-09T14:19:33;49547.59;;;-146.94;69.53
56737;BME280;42618;51.226;4.910;2022-09-09T14:22:00;49517.69;;;-146.94;69.51
56737;BME280;42618;51.226;4.910;2022-09-09T14:24:27;49517.69;;;-146.94;66.67
56737;BME280;42618;51.226;4.910;2022-09-09T14:26:54;49505.72;;;-146.94;66.95
56737;BME280;42618;51.226;4.910;2022-09-09T14:29:21;49467.84;;;-146.94;62.73
56737;BME280;42618;51.226;4.910;2022-09-09T14:31:47;49427.97;;;-146.94;58.71
56737;BME280;42618;51.226;4.910;2022-09-09T14:34:14;49511.72;;;-146.94;62.47
56737;BME280;42618;51.226;4.910;2022-09-09T14:36:41;49527.66;;;-146.94;64.82
56737;BME280;42618;51.226;4.910;2022-09-09T14:39:07;49535.63;;;-146.94;66.57
56737;BME280;42618;51.226;4.910;2022-09-09T14:41:34;49551.56;;;-146.94;68.10
56737;BME280;42618;51.226;4.910;2022-09-09T14:44:01;49543.59;;;-146.94;68.72
56737;BME280;42618;51.226;4.910;2022-09-09T14:46:28;49525.66;;;-146.94;68.07
56737;BME280;42618;51.226;4.910;2022-09-09T14:48:55;49543.59;;;-146.94;69.23
56737;BME280;42618;51.226;4.910;2022-09-09T14:51:23;49529.66;;;-146.94;69.17
56737;BME280;42618;51.226;4.910;2022-09-09T14:53:52;49529.66;;;-146.94;68.43
56737;BME280;42618;51.226;4.910;2022-09-09T14:56:22;49477.81;;;-146.94;67.24
56737;BME280;42618;51.226;4.910;2022-09-09T14:58:50;49507.72;;;-146.94;67.02
56737;BME280;42618;51.226;4.910;2022-09-09T15:01:18;49479.81;;;-146.94;65.10
56737;BME280;42618;51.226;4.910;2022-09-09T15:03:54;49507.72;;;-146.94;65.51
56737;BME280;42618;51.226;4.910;2022-09-09T15:06:22;49487.78;;;-146.94;68.20
56737;BME280;42618;51.226;4.910;2022-09-09T15:08:51;49523.66;;;-146.94;68.32